Time;durP1;ratioP1;P1;durP2;ratioP2;P2;SDS_P1;SDS_P2;PMS_P1;PMS_P2;Temp;Humidity;BMP_temperature;BMP_pressure;BME280_temperature;BME280_humidity;BME280_pressure;Samples;Min_cycle;Max_cycle;Signal;HPM_P1;HPM_P2
2022/09/30 00:01:28;0.00;0.00;0.62;0.00;0.00;0.62;1.47;0.90;;;27.20;26.70;;;;;;2231529;62;20466;-65
2022/09/30 00:04:16;0.00;0.00;0.62;0.00;0.00;0.62;1.60;1.03;;;27.20;26.70;;;;;;2230723;62;20703;-65
2022/09/30 00:07:01;0.00;0.00;0.62;0.00;0.00;0.62;3.10;1.17;;;27.30;26.80;;;;;;2231336;62;20576;-65
2022/09/30 00:09:48;0.00;0.00;0.62;0.00;0.00;0.62;1.60;1.00;;;27.20;26.70;;;;;;2231080;62;20406;-64
2022/09/30 00:12:33;0.00;0.00;0.62;0.00;0.00;0.62;1.77;1.00;;;27.20;26.70;;;;;;2230749;62;20373;-64
2022/09/30 00:15:19;0.00;0.00;0.62;0.00;0.00;0.62;1.87;1.30;;;27.20;26.70;;;;;;2231261;62;20432;-65
2022/09/30 00:18:04;0.00;0.00;0.62;0.00;0.00;0.62;1.80;1.00;;;27.20;26.70;;;;;;2230972;62;20441;-65
2022/09/30 00:20:49;0.00;0.00;0.62;0.00;0.00;0.62;1.80;1.20;;;27.20;26.80;;;;;;2231339;62;20385;-65
2022/09/30 00:23:37;0.00;0.00;0.62;0.00;0.00;0.62;1.60;1.20;;;27.20;26.80;;;;;;2231324;62;20820;-65
2022/09/30 00:26:24;0.00;0.00;0.62;0.00;0.00;0.62;1.70;1.10;;;27.20;26.80;;;;;;2230986;62;20386;-65
2022/09/30 00:29:10;0.00;0.00;0.62;0.00;0.00;0.62;1.70;1.17;;;27.20;26.80;;;;;;2231148;62;20373;-65
2022/09/30 00:31:55;0.00;0.00;0.62;0.00;0.00;0.62;2.17;1.53;;;27.20;26.80;;;;;;2231013;62;20386;-65
2022/09/30 00:34:40;0.00;0.00;0.62;0.00;0.00;0.62;2.30;1.23;;;27.20;26.80;;;;;;2230884;62;20390;-65
2022/09/30 00:37:25;0.00;0.00;0.62;0.00;0.00;0.62;1.47;0.90;;;27.20;26.80;;;;;;2230358;62;20463;-65
2022/09/30 00:40:11;0.00;0.00;0.62;0.00;0.00;0.62;2.40;1.47;;;27.20;26.80;;;;;;2230427;62;20421;-65
2022/09/30 00:42:58;0.00;0.00;0.62;0.00;0.00;0.62;1.90;1.00;;;27.20;26.80;;;;;;2230548;62;20369;-69
2022/09/30 00:45:50;0.00;0.00;0.62;0.00;0.00;0.62;1.60;0.97;;;27.20;26.80;;;;;;2234302;62;20387;-70
2022/09/30 00:48:37;0.00;0.00;0.62;0.00;0.00;0.62;1.67;1.17;;;27.20;26.80;;;;;;2234282;62;20728;-70
2022/09/30 00:51:31;0.00;0.00;0.62;0.00;0.00;0.62;3.47;1.40;;;27.10;26.80;;;;;;2236425;62;20368;-71
2022/09/30 00:54:20;0.00;0.00;0.62;0.00;0.00;0.62;1.50;1.10;;;27.10;26.80;;;;;;2233891;62;20455;-71
2022/09/30 00:57:07;0.00;0.00;0.62;0.00;0.00;0.62;1.70;1.20;;;27.10;26.70;;;;;;2233957;62;20441;-71
2022/09/30 00:59:54;0.00;0.00;0.62;0.00;0.00;0.62;1.87;1.30;;;27.10;26.70;;;;;;2237531;62;20380;-71
2022/09/30 01:02:39;0.00;0.00;0.62;0.00;0.00;0.62;1.70;1.40;;;27.10;26.60;;;;;;2234522;62;20376;-70
2022/09/30 01:05:26;0.00;0.00;0.62;0.00;0.00;0.62;2.00;1.43;;;27.00;26.50;;;;;;2234488;62;20396;-70
2022/09/30 01:08:11;0.00;0.00;0.62;0.00;0.00;0.62;1.50;1.17;;;27.00;26.40;;;;;;2237968;62;20368;-70
2022/09/30 01:10:57;0.00;0.00;0.62;0.00;0.00;0.62;2.57;1.50;;;27.00;26.40;;;;;;2237684;62;20812;-70
2022/09/30 01:13:50;0.00;0.00;0.62;0.00;0.00;0.62;2.20;1.70;;;27.00;26.30;;;;;;2235750;62;20440;-70
2022/09/30 01:16:59;0.00;0.00;0.62;0.00;0.00;0.62;2.53;1.50;;;27.00;26.30;;;;;;2235359;62;20504;-70
2022/09/30 01:20:11;0.00;0.00;0.62;0.00;0.00;0.62;2.50;1.70;;;26.90;26.30;;;;;;2235783;62;20391;-70
2022/09/30 01:23:16;0.00;0.00;0.62;0.00;0.00;0.62;2.10;1.50;;;26.90;26.30;;;;;;2235993;62;20372;-70
2022/09/30 01:26:32;0.00;0.00;0.62;0.00;0.00;0.62;4.00;1.80;;;26.80;26.20;;;;;;2235423;62;20360;-70
2022/09/30 01:30:08;0.00;0.00;0.62;0.00;0.00;0.62;2.10;1.50;;;26.80;26.20;;;;;;2235588;62;20767;-70
2022/09/30 01:33:20;0.00;0.00;0.62;0.00;0.00;0.62;2.20;1.90;;;26.80;26.20;;;;;;2237959;62;20372;-70
2022/09/30 01:36:23;0.00;0.00;0.62;0.00;0.00;0.62;2.20;1.87;;;26.70;26.10;;;;;;2235792;62;20408;-70
2022/09/30 01:39:26;0.00;0.00;0.62;0.00;0.00;0.62;2.20;1.80;;;26.70;26.10;;;;;;2235360;62;20740;-70
2022/09/30 01:42:21;0.00;0.00;0.62;0.00;0.00;0.62;2.00;1.60;;;26.70;26.10;;;;;;2235166;62;20817;-70
2022/09/30 01:45:13;0.00;0.00;0.62;0.00;0.00;0.62;2.23;1.77;;;26.70;26.10;;;;;;2234003;62;20376;-69
2022/09/30 01:48:02;0.00;0.00;0.62;0.00;0.00;0.62;2.10;1.50;;;26.60;26.10;;;;;;2231200;62;20360;-70
2022/09/30 01:50:54;0.00;0.00;0.62;0.00;0.00;0.62;2.47;1.93;;;26.60;26.00;;;;;;2233828;62;20454;-69
2022/09/30 01:53:44;0.00;0.00;0.62;0.00;0.00;0.62;2.10;1.80;;;26.60;26.00;;;;;;2231551;62;20442;-70
2022/09/30 01:56:38;0.00;0.00;0.62;0.00;0.00;0.62;2.30;2.03;;;26.60;26.00;;;;;;2231057;62;20393;-70
2022/09/30 01:59:28;0.00;0.00;0.62;0.00;0.00;0.62;2.20;1.63;;;26.50;25.90;;;;;;2231926;62;20411;-70
2022/09/30 02:02:18;0.00;0.00;0.62;0.00;0.00;0.62;2.03;1.83;;;26.50;25.90;;;;;;2231386;62;20593;-70
2022/09/30 02:05:09;0.00;0.00;0.62;0.00;0.00;0.62;1.97;1.70;;;26.50;25.90;;;;;;2233697;62;20836;-70
2022/09/30 02:08:02;0.00;0.00;0.62;0.00;0.00;0.62;2.57;2.00;;;26.50;25.90;;;;;;2231327;62;20378;-70
2022/09/30 02:10:56;0.00;0.00;0.62;0.00;0.00;0.62;2.70;1.83;;;26.40;25.90;;;;;;2231052;62;20473;-70
2022/09/30 02:13:48;0.00;0.00;0.62;0.00;0.00;0.62;2.50;1.97;;;26.40;25.90;;;;;;2234158;62;20368;-70
2022/09/30 02:16:38;0.00;0.00;0.62;0.00;0.00;0.62;2.60;2.23;;;26.30;25.80;;;;;;2231369;62;20410;-70
2022/09/30 02:19:32;0.00;0.00;0.62;0.00;0.00;0.62;2.57;1.87;;;26.30;25.90;;;;;;2231458;62;20414;-70
2022/09/30 02:22:20;0.00;0.00;0.62;0.00;0.00;0.62;2.50;1.70;;;26.30;25.90;;;;;;2231473;62;20373;-69
2022/09/30 02:25:09;0.00;0.00;0.62;0.00;0.00;0.62;2.10;1.70;;;26.30;25.90;;;;;;2233522;62;20373;-70
2022/09/30 02:28:00;0.00;0.00;0.62;0.00;0.00;0.62;2.63;1.80;;;26.20;25.90;;;;;;2231666;62;20436;-70
2022/09/30 02:30:51;0.00;0.00;0.62;0.00;0.00;0.62;2.70;1.90;;;26.20;25.90;;;;;;2231390;62;20752;-70
2022/09/30 02:33:41;0.00;0.00;0.62;0.00;0.00;0.62;2.43;1.97;;;26.20;25.90;;;;;;2231323;62;20426;-70
2022/09/30 02:36:32;0.00;0.00;0.62;0.00;0.00;0.62;2.57;1.90;;;26.10;25.80;;;;;;2231711;62;20409;-70
2022/09/30 02:39:27;0.00;0.00;0.62;0.00;0.00;0.62;2.30;2.07;;;26.10;25.80;;;;;;2231050;62;20396;-70
2022/09/30 02:42:19;0.00;0.00;0.62;0.00;0.00;0.62;2.67;2.00;;;26.00;26.30;;;;;;2231732;62;20595;-71
2022/09/30 02:45:09;0.00;0.00;0.62;0.00;0.00;0.62;3.20;1.93;;;26.00;25.70;;;;;;2234209;62;20380;-70
2022/09/30 02:48:12;0.00;0.00;0.62;0.00;0.00;0.62;2.27;1.90;;;26.00;25.70;;;;;;2235015;62;20582;-70
2022/09/30 02:51:05;0.00;0.00;0.62;0.00;0.00;0.62;2.17;1.90;;;25.90;25.80;;;;;;2237614;62;20456;-70
2022/09/30 02:54:01;0.00;0.00;0.62;0.00;0.00;0.62;2.30;1.77;;;25.90;25.80;;;;;;2235269;62;20373;-70
2022/09/30 02:56:55;0.00;0.00;0.62;0.00;0.00;0.62;2.93;1.60;;;25.80;25.70;;;;;;2235497;62;20389;-70
2022/09/30 02:59:41;0.00;0.00;0.62;0.00;0.00;0.62;2.30;1.63;;;25.80;25.70;;;;;;2235318;62;20411;-70
2022/09/30 03:02:27;0.00;0.00;0.62;0.00;0.00;0.62;2.17;1.50;;;25.80;25.80;;;;;;2235328;62;20369;-69
2022/09/30 03:05:13;0.00;0.00;0.62;0.00;0.00;0.62;2.10;1.90;;;25.80;25.80;;;;;;2235346;62;20404;-70
2022/09/30 03:07:58;0.00;0.00;0.62;0.00;0.00;0.62;2.07;1.57;;;25.80;25.80;;;;;;2237532;62;20568;-70
2022/09/30 03:10:45;0.00;0.00;0.62;0.00;0.00;0.62;2.30;1.80;;;25.80;25.80;;;;;;2235250;62;20433;-70
2022/09/30 03:14:17;0.00;0.00;0.62;0.00;0.00;0.62;2.37;1.73;;;25.70;25.70;;;;;;2235374;62;20453;-70
2022/09/30 03:17:28;0.00;0.00;0.62;0.00;0.00;0.62;1.90;1.53;;;25.70;25.80;;;;;;2218927;62;20476;-70
2022/09/30 03:20:49;0.00;0.00;0.62;0.00;0.00;0.62;3.97;1.90;;;25.70;25.80;;;;;;2234903;62;20397;-70
2022/09/30 03:24:04;0.00;0.00;0.62;0.00;0.00;0.62;3.60;1.93;;;25.60;25.70;;;;;;2234840;62;20388;-70
2022/09/30 03:26:59;0.00;0.00;0.62;0.00;0.00;0.62;2.53;1.50;;;25.60;25.70;;;;;;2237644;62;20437;-70
2022/09/30 03:29:53;0.00;0.00;0.62;0.00;0.00;0.62;1.80;1.37;;;25.50;25.70;;;;;;2235273;62;20380;-69
2022/09/30 03:32:58;0.00;0.00;0.62;0.00;0.00;0.62;1.90;1.70;;;25.50;25.70;;;;;;2235008;62;20729;-69
2022/09/30 03:35:56;0.00;0.00;0.62;0.00;0.00;0.62;2.43;1.90;;;25.50;25.70;;;;;;2237742;62;20373;-70
2022/09/30 03:38:51;0.00;0.00;0.62;0.00;0.00;0.62;2.40;2.00;;;25.50;25.70;;;;;;2235242;62;20393;-70
2022/09/30 03:41:43;0.00;0.00;0.62;0.00;0.00;0.62;1.93;1.57;;;25.40;25.60;;;;;;2235233;62;20364;-70
2022/09/30 03:44:36;0.00;0.00;0.62;0.00;0.00;0.62;2.00;1.60;;;25.40;25.70;;;;;;2235200;62;20405;-69
2022/09/30 03:47:24;0.00;0.00;0.62;0.00;0.00;0.62;2.20;1.53;;;25.40;25.70;;;;;;2235054;62;20450;-70
2022/09/30 03:50:14;0.00;0.00;0.62;0.00;0.00;0.62;1.97;1.67;;;25.30;25.70;;;;;;2235364;62;20400;-70
2022/09/30 03:52:59;0.00;0.00;0.62;0.00;0.00;0.62;2.77;1.73;;;25.30;25.70;;;;;;2235159;62;20364;-71
2022/09/30 03:55:51;0.00;0.00;0.62;0.00;0.00;0.62;2.10;1.70;;;25.30;25.70;;;;;;2235260;62;20397;-70
2022/09/30 03:58:40;0.00;0.00;0.62;0.00;0.00;0.62;2.00;1.80;;;25.20;25.60;;;;;;2235029;62;20401;-70
2022/09/30 04:01:25;0.00;0.00;0.62;0.00;0.00;0.62;1.90;1.50;;;25.20;25.70;;;;;;2235136;62;20440;-70
2022/09/30 04:04:11;0.00;0.00;0.62;0.00;0.00;0.62;2.07;1.47;;;25.20;25.70;;;;;;2235070;62;20458;-70
2022/09/30 04:06:57;0.00;0.00;0.62;0.00;0.00;0.62;2.13;1.40;;;25.20;25.70;;;;;;2237353;62;20417;-70
2022/09/30 04:09:43;0.00;0.00;0.62;0.00;0.00;0.62;1.80;1.40;;;25.20;25.70;;;;;;2237149;62;20432;-70
2022/09/30 04:12:28;0.00;0.00;0.62;0.00;0.00;0.62;3.10;1.30;;;25.10;25.70;;;;;;2234639;62;20648;-70
2022/09/30 04:15:13;0.00;0.00;0.62;0.00;0.00;0.62;2.20;1.80;;;25.10;25.70;;;;;;2234571;62;20368;-70
2022/09/30 04:17:58;0.00;0.00;0.62;0.00;0.00;0.62;1.80;1.50;;;25.10;25.70;;;;;;2234278;62;20396;-69
2022/09/30 04:20:43;0.00;0.00;0.62;0.00;0.00;0.62;1.90;1.70;;;25.10;25.70;;;;;;2234554;62;20376;-70
2022/09/30 04:23:29;0.00;0.00;0.62;0.00;0.00;0.62;2.00;1.40;;;25.10;25.70;;;;;;2236524;62;20364;-69
2022/09/30 04:26:16;0.00;0.00;0.62;0.00;0.00;0.62;2.13;1.40;;;25.10;25.80;;;;;;2236825;62;20781;-67
2022/09/30 04:29:01;0.00;0.00;0.62;0.00;0.00;0.62;1.97;1.63;;;25.10;25.80;;;;;;2234641;62;20404;-69
2022/09/30 04:31:45;0.00;0.00;0.62;0.00;0.00;0.62;1.90;1.33;;;25.00;25.70;;;;;;2234175;62;20417;-69
2022/09/30 04:34:30;0.00;0.00;0.62;0.00;0.00;0.62;1.97;1.30;;;25.00;25.70;;;;;;2235629;62;20372;-69
2022/09/30 04:37:15;0.00;0.00;0.62;0.00;0.00;0.62;1.70;1.50;;;25.00;25.70;;;;;;2235077;62;20440;-69
2022/09/30 04:40:02;0.00;0.00;0.62;0.00;0.00;0.62;2.23;1.77;;;25.00;25.70;;;;;;2235616;62;20388;-70
2022/09/30 04:42:47;0.00;0.00;0.62;0.00;0.00;0.62;1.83;1.50;;;25.00;25.80;;;;;;2235886;62;20368;-69
2022/09/30 04:45:32;0.00;0.00;0.62;0.00;0.00;0.62;2.17;1.67;;;25.00;25.80;;;;;;2235395;62;20368;-69
2022/09/30 04:48:18;0.00;0.00;0.62;0.00;0.00;0.62;1.93;1.50;;;25.00;25.80;;;;;;2238133;62;20728;-69
2022/09/30 04:51:03;0.00;0.00;0.62;0.00;0.00;0.62;2.00;1.57;;;25.00;25.80;;;;;;2235785;62;20493;-69
2022/09/30 04:53:49;0.00;0.00;0.62;0.00;0.00;0.62;2.20;1.73;;;24.90;25.80;;;;;;2235394;62;20429;-69
2022/09/30 04:56:35;0.00;0.00;0.62;0.00;0.00;0.62;2.50;1.60;;;24.90;25.80;;;;;;2235734;62;20436;-69
2022/09/30 04:59:20;0.00;0.00;0.62;0.00;0.00;0.62;2.30;1.53;;;24.90;25.80;;;;;;2235405;62;20474;-69
2022/09/30 05:02:05;0.00;0.00;0.62;0.00;0.00;0.62;2.97;1.73;;;24.90;25.80;;;;;;2235753;62;20380;-69
2022/09/30 05:04:50;0.00;0.00;0.62;0.00;0.00;0.62;2.10;1.70;;;24.90;25.80;;;;;;2238341;62;20376;-70
2022/09/30 05:07:35;0.00;0.00;0.62;0.00;0.00;0.62;1.97;1.63;;;24.90;25.80;;;;;;2235364;62;20392;-69
2022/09/30 05:10:20;0.00;0.00;0.62;0.00;0.00;0.62;2.10;1.57;;;24.90;25.80;;;;;;2235725;62;20392;-69
2022/09/30 05:13:07;0.00;0.00;0.62;0.00;0.00;0.62;2.00;1.50;;;24.90;25.80;;;;;;2235504;62;20412;-69
2022/09/30 05:15:52;0.00;0.00;0.62;0.00;0.00;0.62;2.23;1.53;;;24.80;25.70;;;;;;2235496;62;20376;-70
2022/09/30 05:18:44;0.00;0.00;0.62;0.00;0.00;0.62;2.10;1.90;;;24.80;25.70;;;;;;2235798;62;20389;-70
2022/09/30 05:21:30;0.00;0.00;0.62;0.00;0.00;0.62;1.80;1.57;;;24.80;25.70;;;;;;2235312;62;20467;-70
2022/09/30 05:24:14;0.00;0.00;0.62;0.00;0.00;0.62;2.37;1.53;;;24.80;25.70;;;;;;2235689;62;20364;-70
2022/09/30 05:27:00;0.00;0.00;0.62;0.00;0.00;0.62;2.77;1.90;;;24.70;25.60;;;;;;2235803;62;20360;-70
2022/09/30 05:29:46;0.00;0.00;0.62;0.00;0.00;0.62;2.73;1.57;;;24.70;25.60;;;;;;2235537;62;20513;-70
2022/09/30 05:32:31;0.00;0.00;0.62;0.00;0.00;0.62;2.80;1.90;;;24.70;25.60;;;;;;2235394;62;20389;-70
2022/09/30 05:35:16;0.00;0.00;0.62;0.00;0.00;0.62;2.87;1.70;;;24.60;25.60;;;;;;2235485;62;20404;-70
2022/09/30 05:38:03;0.00;0.00;0.62;0.00;0.00;0.62;2.67;1.70;;;24.60;25.60;;;;;;2235352;62;20427;-70
2022/09/30 05:40:48;0.00;0.00;0.62;0.00;0.00;0.62;2.30;1.70;;;24.60;25.60;;;;;;2235596;62;20400;-69
2022/09/30 05:43:33;0.00;0.00;0.62;0.00;0.00;0.62;2.00;1.80;;;24.60;25.60;;;;;;2235668;62;20360;-69
2022/09/30 05:46:20;0.00;0.00;0.62;0.00;0.00;0.62;1.97;1.50;;;24.50;25.60;;;;;;2235571;62;20417;-70
2022/09/30 05:49:04;0.00;0.00;0.62;0.00;0.00;0.62;5.10;1.90;;;24.60;25.70;;;;;;2235491;62;20486;-70
2022/09/30 05:51:49;0.00;0.00;0.62;0.00;0.00;0.62;2.07;1.57;;;24.50;25.60;;;;;;2235730;62;20365;-69
2022/09/30 05:54:35;0.00;0.00;0.62;0.00;0.00;0.62;2.10;1.77;;;24.50;25.70;;;;;;2235786;62;20408;-69
2022/09/30 05:57:19;0.00;0.00;0.62;0.00;0.00;0.62;2.10;1.50;;;24.50;25.70;;;;;;2235331;62;20421;-70
2022/09/30 06:00:06;0.00;0.00;0.62;0.00;0.00;0.62;2.40;1.70;;;24.50;25.70;;;;;;2235676;62;20391;-70
2022/09/30 06:02:57;0.00;0.00;0.62;0.00;0.00;0.62;1.87;1.60;;;24.50;25.70;;;;;;2235705;62;20587;-70
2022/09/30 06:05:44;0.00;0.00;0.62;0.00;0.00;0.62;2.70;1.80;;;24.50;25.70;;;;;;2235744;62;20397;-70
2022/09/30 06:08:29;0.00;0.00;0.62;0.00;0.00;0.62;2.40;1.80;;;24.40;25.70;;;;;;2235709;62;20396;-71
2022/09/30 06:11:17;0.00;0.00;0.62;0.00;0.00;0.62;3.33;1.90;;;24.40;25.70;;;;;;2235284;62;20649;-70
2022/09/30 06:14:02;0.00;0.00;0.62;0.00;0.00;0.62;2.40;1.70;;;24.40;25.70;;;;;;2235292;62;20590;-70
2022/09/30 06:16:48;0.00;0.00;0.62;0.00;0.00;0.62;1.90;1.57;;;24.40;25.70;;;;;;2235413;62;20440;-70
2022/09/30 06:19:34;0.00;0.00;0.62;0.00;0.00;0.62;2.33;1.87;;;24.40;25.70;;;;;;2235513;62;20387;-70
2022/09/30 06:22:19;0.00;0.00;0.62;0.00;0.00;0.62;3.43;2.37;;;24.40;25.70;;;;;;2235239;62;20368;-70
2022/09/30 06:25:05;0.00;0.00;0.62;0.00;0.00;0.62;3.77;2.50;;;24.40;25.70;;;;;;2235472;62;20368;-71
2022/09/30 06:27:51;0.00;0.00;0.62;0.00;0.00;0.62;3.33;2.70;;;24.40;25.80;;;;;;2235527;62;20368;-71
2022/09/30 06:30:36;0.00;0.00;0.62;0.00;0.00;0.62;6.53;3.13;;;24.30;25.70;;;;;;2235877;62;20457;-69
2022/09/30 06:33:21;0.00;0.00;0.62;0.00;0.00;0.62;3.43;3.03;;;24.40;25.80;;;;;;2238138;62;20373;-71
2022/09/30 06:36:07;0.00;0.00;0.62;0.00;0.00;0.62;4.97;3.43;;;24.30;25.70;;;;;;2235019;62;20356;-71
2022/09/30 06:38:53;0.00;0.00;0.62;0.00;0.00;0.62;4.00;3.10;;;24.30;25.70;;;;;;2235705;62;20367;-66
2022/09/30 06:41:41;0.00;0.00;0.62;0.00;0.00;0.62;4.00;3.03;;;24.30;25.70;;;;;;2234779;62;20377;-64
2022/09/30 06:44:25;0.00;0.00;0.62;0.00;0.00;0.62;4.40;3.37;;;24.30;25.70;;;;;;2234819;62;20593;-65
2022/09/30 06:47:11;0.00;0.00;0.62;0.00;0.00;0.62;4.87;3.03;;;24.30;25.80;;;;;;2235299;62;20386;-69
2022/09/30 06:49:57;0.00;0.00;0.62;0.00;0.00;0.62;3.60;3.00;;;24.30;25.80;;;;;;2234770;62;20392;-68
2022/09/30 06:52:44;0.00;0.00;0.62;0.00;0.00;0.62;3.07;2.70;;;24.30;25.70;;;;;;2234968;62;20461;-70
2022/09/30 06:55:29;0.00;0.00;0.62;0.00;0.00;0.62;4.33;3.30;;;24.30;25.70;;;;;;2235309;62;20373;-68
2022/09/30 06:58:15;0.00;0.00;0.62;0.00;0.00;0.62;3.67;2.73;;;24.30;25.70;;;;;;2235671;62;20392;-70
2022/09/30 07:01:03;0.00;0.00;0.62;0.00;0.00;0.62;3.67;3.07;;;24.30;25.70;;;;;;2235282;62;20388;-70
2022/09/30 07:03:56;0.00;0.00;0.62;0.00;0.00;0.62;3.63;2.73;;;24.20;25.70;;;;;;2234953;62;20381;-71
2022/09/30 07:06:42;0.00;0.00;0.62;0.00;0.00;0.62;2.83;2.40;;;24.30;25.80;;;;;;2234864;62;20368;-65
2022/09/30 07:09:28;0.00;0.00;0.62;0.00;0.00;0.62;3.20;2.67;;;24.20;25.70;;;;;;2235342;62;20453;-65
2022/09/30 07:12:12;0.00;0.00;0.62;0.00;0.00;0.62;3.93;2.70;;;24.20;25.70;;;;;;2235187;62;20641;-67
2022/09/30 07:14:58;0.00;0.00;0.62;0.00;0.00;0.62;4.30;3.10;;;24.20;25.70;;;;;;2235228;62;20390;-64
2022/09/30 07:17:43;0.00;0.00;0.62;0.00;0.00;0.62;3.77;2.70;;;24.20;25.80;;;;;;2235475;62;20445;-68
2022/09/30 07:20:29;0.00;0.00;0.62;0.00;0.00;0.62;4.10;2.60;;;24.30;25.90;;;;;;2234898;62;20480;-65
2022/09/30 07:23:13;0.00;0.00;0.62;0.00;0.00;0.62;3.23;2.73;;;24.20;25.80;;;;;;2235224;62;20364;-64
2022/09/30 07:26:03;0.00;0.00;0.62;0.00;0.00;0.62;3.30;2.80;;;24.20;25.80;;;;;;2235267;62;20408;-73
2022/09/30 07:28:49;0.00;0.00;0.62;0.00;0.00;0.62;3.00;2.40;;;24.20;25.80;;;;;;2235351;62;20364;-69
2022/09/30 07:31:34;0.00;0.00;0.62;0.00;0.00;0.62;3.07;2.60;;;24.20;25.80;;;;;;2235297;62;20368;-70
2022/09/30 07:34:20;0.00;0.00;0.62;0.00;0.00;0.62;3.47;2.80;;;24.20;25.80;;;;;;2234413;62;20370;-68
2022/09/30 07:37:05;0.00;0.00;0.62;0.00;0.00;0.62;2.97;2.47;;;24.20;25.80;;;;;;2234350;62;20384;-66
2022/09/30 07:39:51;0.00;0.00;0.62;0.00;0.00;0.62;2.97;2.30;;;24.20;25.90;;;;;;2234818;62;20460;-70
2022/09/30 07:42:44;0.00;0.00;0.62;0.00;0.00;0.62;3.37;2.40;;;24.20;25.90;;;;;;2234106;62;20367;-73
2022/09/30 07:45:29;0.00;0.00;0.62;0.00;0.00;0.62;4.07;2.67;;;24.20;25.90;;;;;;2230829;62;20381;-70
2022/09/30 07:51:22;0.00;0.00;0.62;0.00;0.00;0.62;3.53;2.33;;;24.20;25.90;;;;;;2230603;62;20388;-72
2022/09/30 07:54:10;0.00;0.00;0.62;0.00;0.00;0.62;2.63;2.40;;;24.20;25.90;;;;;;2231241;62;20470;-73
2022/09/30 07:56:57;0.00;0.00;0.62;0.00;0.00;0.62;3.17;2.60;;;24.20;26.00;;;;;;2230593;62;20397;-65
2022/09/30 07:59:44;0.00;0.00;0.62;0.00;0.00;0.62;3.67;2.27;;;24.10;25.90;;;;;;2231552;62;20397;-68
2022/09/30 08:02:29;0.00;0.00;0.62;0.00;0.00;0.62;3.53;2.70;;;24.10;26.00;;;;;;2231740;62;20486;-72
2022/09/30 08:05:14;0.00;0.00;0.62;0.00;0.00;0.62;3.43;2.70;;;24.10;26.00;;;;;;2231261;62;20412;-72
2022/09/30 08:07:59;0.00;0.00;0.62;0.00;0.00;0.62;3.80;2.50;;;24.10;26.00;;;;;;2231497;62;20382;-75
2022/09/30 08:10:44;0.00;0.00;0.62;0.00;0.00;0.62;5.30;3.17;;;24.10;26.00;;;;;;2232034;62;20385;-65
2022/09/30 08:13:29;0.00;0.00;0.62;0.00;0.00;0.62;3.13;2.17;;;24.10;26.10;;;;;;2234092;62;20410;-65
2022/09/30 08:16:16;0.00;0.00;0.62;0.00;0.00;0.62;6.10;2.90;;;24.10;26.10;;;;;;2231795;62;20732;-68
2022/09/30 08:19:02;0.00;0.00;0.62;0.00;0.00;0.62;3.13;2.23;;;24.10;26.70;;;;;;2231966;62;20377;-65
2022/09/30 08:21:47;0.00;0.00;0.62;0.00;0.00;0.62;2.93;2.60;;;24.10;26.10;;;;;;2232427;62;20369;-65
2022/09/30 08:24:32;0.00;0.00;0.62;0.00;0.00;0.62;4.00;2.30;;;24.10;26.20;;;;;;2232320;62;20763;-64
2022/09/30 08:27:17;0.00;0.00;0.62;0.00;0.00;0.62;2.13;1.80;;;24.10;26.20;;;;;;2231556;62;20397;-64
2022/09/30 08:30:02;0.00;0.00;0.62;0.00;0.00;0.62;2.13;1.63;;;24.20;26.30;;;;;;2232111;62;20476;-62
2022/09/30 08:32:49;0.00;0.00;0.62;0.00;0.00;0.62;2.70;1.90;;;24.20;26.20;;;;;;2231622;62;20736;-66
2022/09/30 08:35:35;0.00;0.00;0.62;0.00;0.00;0.62;1.70;1.50;;;24.20;26.30;;;;;;2231477;62;20393;-65
2022/09/30 08:38:20;0.00;0.00;0.62;0.00;0.00;0.62;2.03;1.70;;;24.30;26.40;;;;;;2231791;62;20709;-66
2022/09/30 08:41:31;0.00;0.00;0.62;0.00;0.00;0.62;2.37;1.60;;;24.30;26.40;;;;;;2231737;62;20404;-61
2022/09/30 08:44:35;0.00;0.00;0.62;0.00;0.00;0.62;2.00;1.60;;;24.30;26.40;;;;;;2231849;62;20398;-61
2022/09/30 08:47:40;0.00;0.00;0.62;0.00;0.00;0.62;2.40;1.83;;;24.30;26.40;;;;;;2232063;62;20368;-61
2022/09/30 08:50:38;0.00;0.00;0.62;0.00;0.00;0.62;2.40;1.93;;;24.40;26.50;;;;;;2231613;62;20433;-67
2022/09/30 08:53:29;0.00;0.00;0.62;0.00;0.00;0.62;2.40;1.80;;;24.40;26.50;;;;;;2231874;62;20418;-66
2022/09/30 08:56:22;0.00;0.00;0.62;0.00;0.00;0.62;2.50;1.70;;;24.50;26.60;;;;;;2231346;62;20425;-65
2022/09/30 08:59:29;0.00;0.00;0.62;0.00;0.00;0.62;2.27;1.50;;;24.50;26.70;;;;;;2231383;62;20377;-61
2022/09/30 09:02:20;0.00;0.00;0.62;0.00;0.00;0.62;2.13;1.80;;;24.50;26.70;;;;;;2231712;62;20763;-66
2022/09/30 09:05:09;0.00;0.00;0.62;0.00;0.00;0.62;2.07;1.67;;;24.60;26.80;;;;;;2231304;62;20732;-63
2022/09/30 09:08:03;0.00;0.00;0.62;0.00;0.00;0.62;2.43;2.03;;;24.60;26.70;;;;;;2231899;62;20544;-67
2022/09/30 09:10:58;0.00;0.00;0.62;0.00;0.00;0.62;3.53;2.20;;;24.60;26.70;;;;;;2231605;62;20748;-71
2022/09/30 09:13:51;0.00;0.00;0.62;0.00;0.00;0.62;2.57;1.80;;;24.60;26.70;;;;;;2231509;62;20358;-62
2022/09/30 09:16:45;0.00;0.00;0.62;0.00;0.00;0.62;3.10;1.87;;;24.70;26.80;;;;;;2231468;62;20360;-62
2022/09/30 09:19:37;0.00;0.00;0.62;0.00;0.00;0.62;2.70;1.80;;;24.70;26.80;;;;;;2231338;62;20417;-62
2022/09/30 09:22:24;0.00;0.00;0.62;0.00;0.00;0.62;2.80;1.37;;;24.80;26.80;;;;;;2231656;62;20605;-62
2022/09/30 09:25:14;0.00;0.00;0.62;0.00;0.00;0.62;2.63;1.90;;;24.80;26.80;;;;;;2231722;62;20369;-63
2022/09/30 09:28:02;0.00;0.00;0.62;0.00;0.00;0.62;2.93;2.00;;;24.80;26.80;;;;;;2231540;62;20698;-62
2022/09/30 09:30:52;0.00;0.00;0.62;0.00;0.00;0.62;2.40;1.90;;;24.90;26.80;;;;;;2231793;62;20479;-62
2022/09/30 09:33:38;0.00;0.00;0.62;0.00;0.00;0.62;5.70;2.10;;;24.90;27.30;;;;;;2231523;62;20365;-64
2022/09/30 09:36:37;0.00;0.00;0.62;0.00;0.00;0.62;3.80;2.27;;;24.90;26.80;;;;;;2231696;62;20378;-66
2022/09/30 09:39:51;0.00;0.00;0.62;0.00;0.00;0.62;3.13;2.03;;;25.00;26.90;;;;;;2232407;62;20446;-65
2022/09/30 09:42:52;0.00;0.00;0.62;0.00;0.00;0.62;2.40;1.60;;;25.00;27.00;;;;;;2231931;62;20410;-67
2022/09/30 09:45:48;0.00;0.00;0.62;0.00;0.00;0.62;3.77;1.93;;;25.00;27.00;;;;;;2232266;62;20369;-67
2022/09/30 09:48:34;0.00;0.00;0.62;0.00;0.00;0.62;2.50;1.80;;;25.00;27.00;;;;;;2234091;62;20411;-66
2022/09/30 09:51:27;0.00;0.00;0.62;0.00;0.00;0.62;2.63;1.70;;;25.10;27.10;;;;;;2231640;62;20429;-65
2022/09/30 09:54:15;0.00;0.00;0.62;0.00;0.00;0.62;4.07;2.03;;;25.10;27.00;;;;;;2232112;62;20369;-66
2022/09/30 09:57:08;0.00;0.00;0.62;0.00;0.00;0.62;2.20;1.77;;;25.10;27.00;;;;;;2231760;62;20418;-66
2022/09/30 09:59:59;0.00;0.00;0.62;0.00;0.00;0.62;3.00;1.50;;;25.20;27.00;;;;;;2232176;62;20457;-66
2022/09/30 10:02:44;0.00;0.00;0.62;0.00;0.00;0.62;2.10;1.63;;;25.20;27.00;;;;;;2231939;62;20464;-65
2022/09/30 10:05:31;0.00;0.00;0.62;0.00;0.00;0.62;2.50;1.70;;;25.20;27.00;;;;;;2231987;62;20397;-66
2022/09/30 10:08:18;0.00;0.00;0.62;0.00;0.00;0.62;3.27;1.70;;;25.20;26.90;;;;;;2232318;62;20391;-66
2022/09/30 10:11:06;0.00;0.00;0.62;0.00;0.00;0.62;2.60;1.73;;;25.30;27.00;;;;;;2231974;62;20401;-65
2022/09/30 10:13:55;0.00;0.00;0.62;0.00;0.00;0.62;2.10;1.43;;;25.40;27.00;;;;;;2232228;62;20381;-65
2022/09/30 10:16:43;0.00;0.00;0.62;0.00;0.00;0.62;2.97;1.90;;;25.40;27.50;;;;;;2231799;62;20366;-66
2022/09/30 10:19:33;0.00;0.00;0.62;0.00;0.00;0.62;1.80;1.30;;;25.40;27.00;;;;;;2231683;62;20409;-65
2022/09/30 10:22:24;0.00;0.00;0.62;0.00;0.00;0.62;2.30;1.57;;;25.40;26.90;;;;;;2232448;62;20357;-66
2022/09/30 10:25:20;0.00;0.00;0.62;0.00;0.00;0.62;2.73;1.63;;;25.50;27.00;;;;;;2231647;62;20729;-66
2022/09/30 10:28:22;0.00;0.00;0.62;0.00;0.00;0.62;2.20;1.70;;;25.50;27.00;;;;;;2231908;62;20390;-66
2022/09/30 10:31:22;0.00;0.00;0.62;0.00;0.00;0.62;1.70;1.50;;;25.50;27.00;;;;;;2231411;62;20389;-66
2022/09/30 10:34:18;0.00;0.00;0.62;0.00;0.00;0.62;2.53;1.80;;;25.60;27.00;;;;;;2231892;62;20382;-65
2022/09/30 10:37:10;0.00;0.00;0.62;0.00;0.00;0.62;1.80;1.40;;;25.60;26.90;;;;;;2232166;62;20753;-66
2022/09/30 10:40:00;0.00;0.00;0.62;0.00;0.00;0.62;2.70;1.97;;;25.60;26.90;;;;;;2233994;62;20638;-66
2022/09/30 10:42:47;0.00;0.00;0.62;0.00;0.00;0.62;1.90;1.30;;;25.70;27.00;;;;;;2231825;62;20373;-66
2022/09/30 10:45:37;0.00;0.00;0.62;0.00;0.00;0.62;2.13;1.70;;;25.70;27.00;;;;;;2231401;62;20441;-66
2022/09/30 10:48:24;0.00;0.00;0.62;0.00;0.00;0.62;3.03;1.50;;;25.80;27.00;;;;;;2231790;62;20466;-66
2022/09/30 10:51:23;0.00;0.00;0.62;0.00;0.00;0.62;1.97;1.23;;;25.80;27.00;;;;;;2232024;62;20433;-65
2022/09/30 10:54:33;0.00;0.00;0.62;0.00;0.00;0.62;2.43;1.30;;;25.80;26.90;;;;;;2231786;62;20438;-65
2022/09/30 10:57:22;0.00;0.00;0.62;0.00;0.00;0.62;1.80;1.40;;;25.90;27.00;;;;;;2231243;62;20388;-66
2022/09/30 11:00:14;0.00;0.00;0.62;0.00;0.00;0.62;2.03;1.50;;;25.90;27.00;;;;;;2231317;62;20466;-66
2022/09/30 11:03:05;0.00;0.00;0.62;0.00;0.00;0.62;1.80;1.30;;;25.90;26.90;;;;;;2230838;62;20419;-66
2022/09/30 11:05:50;0.00;0.00;0.62;0.00;0.00;0.62;3.20;1.43;;;26.00;27.00;;;;;;2230889;62;20385;-66
2022/09/30 11:08:44;0.00;0.00;0.62;0.00;0.00;0.62;1.70;1.23;;;26.00;26.90;;;;;;2230822;62;20369;-66
2022/09/30 11:11:37;0.00;0.00;0.62;0.00;0.00;0.62;1.60;1.13;;;26.10;27.00;;;;;;2230709;62;20389;-67
2022/09/30 11:14:34;0.00;0.00;0.62;0.00;0.00;0.62;2.40;1.60;;;26.10;27.00;;;;;;2231791;62;20369;-67